LSZH/ZRH METAR and TAF weather

Enter ICAO airport designator
Station Type Date Time Source
LSZH METAR 2022/06/26 08:20 UTC NOAA

LSZH 260820Z 01004KT 330V050 CAVOK 21/16 Q1015 NOSIG


Station Type Date Time Source
LSZH Decoded METAR 2022/06/26 08:20 UTC NOAA

Zurich-Kloten, Switzerland (LSZH) 47-29N 008-32E 432M
Jun 26, 2022 - 04:20 AM EDT / 2022.06.26 0820 UTC
Wind: from the N (010 degrees) at 5 MPH (4 KT) (direction variable):0
Visibility: greater than 7 mile(s):0
Temperature: 69 F (21 C)
Dew Point: 60 F (16 C)
Relative Humidity: 73%
Pressure (altimeter): 29.97 in. Hg (1015 hPa)
ob: LSZH 260820Z 01004KT 330V050 CAVOK 21/16 Q1015 NOSIG
cycle: 8

Station Type Date Time Source
LSZH TAF 2022/06/26 09:37 UTC NOAA

TAF LSZH 260825Z 2609/2715 35004KT CAVOK TX28/2615Z TN17/2704Z TX24/2714Z
BECMG 2611/2614 03007KT 9999 FEW050 PROB40
TEMPO 2615/2623 9999 FEW060TCU
BECMG 2618/2620 VRB02KT PROB30
TEMPO 2622/2702 32012G25KT TS FEW060CB
BECMG 2708/2711 28008KT
BECMG 2712/2715 FEW040CB BKN050
TEMPO 2713/2715 28015G25KT 3000 TSRA SCT035CB

Example: see airport list